createdAt,value
2017-01-09T00:09:12.905Z,1030.076
2017-01-09T00:12:16.294Z,1030.107
2017-01-09T00:15:20.091Z,1030.135
2017-01-09T00:18:24.890Z,1030.115
2017-01-09T00:21:28.844Z,1030.025
2017-01-09T00:27:31.243Z,1029.875
2017-01-09T00:36:51.790Z,1029.860
2017-01-09T00:43:00.160Z,1029.798
2017-01-09T00:49:09.224Z,1029.809
2017-01-09T00:52:12.950Z,1029.760
2017-01-09T00:55:17.925Z,1029.703
2017-01-09T00:58:21.135Z,1029.655
2017-01-09T01:01:24.927Z,1029.640
2017-01-09T01:04:28.410Z,1029.656
2017-01-09T01:07:32.229Z,1029.676
2017-01-09T01:16:41.104Z,1029.467
2017-01-09T01:19:42.072Z,1029.419
2017-01-09T01:22:46.143Z,1029.412
2017-01-09T01:25:44.753Z,1029.372
2017-01-09T01:28:49.169Z,1029.334
2017-01-09T01:31:53.636Z,1029.306
2017-01-09T01:34:58.047Z,1029.214
2017-01-09T01:38:02.414Z,1029.231
2017-01-09T01:41:07.045Z,1029.213
2017-01-09T01:44:11.482Z,1029.170
2017-01-09T01:47:16.082Z,1029.203
2017-01-09T01:50:20.502Z,1029.199
2017-01-09T01:53:25.034Z,1029.126
2017-01-09T01:56:29.436Z,1029.045
2017-01-09T01:59:33.989Z,1029.005
2017-01-09T02:02:38.353Z,1029.005
2017-01-09T02:05:48.952Z,1029.032
2017-01-09T02:08:52.655Z,1029.026
2017-01-09T02:11:57.687Z,1028.985
2017-01-09T02:14:55.300Z,1028.961
2017-01-09T02:18:05.928Z,1028.997
2017-01-09T02:21:09.804Z,1029.040
2017-01-09T02:24:13.531Z,1029.103
2017-01-09T02:27:17.139Z,1029.124
2017-01-09T02:33:25.646Z,1028.993
2017-01-09T02:36:29.538Z,1028.936
2017-01-09T02:39:33.539Z,1028.962
2017-01-09T02:42:31.603Z,1028.929
2017-01-09T02:45:35.855Z,1028.896
2017-01-09T02:48:45.461Z,1028.909
2017-01-09T02:54:52.999Z,1028.877
2017-01-09T02:57:56.530Z,1028.838
2017-01-09T03:01:01.464Z,1028.822
2017-01-09T03:04:05.688Z,1028.787
2017-01-09T03:07:09.533Z,1028.803
2017-01-09T03:10:13.058Z,1028.736
2017-01-09T03:13:16.855Z,1028.708
2017-01-09T03:22:30.411Z,1028.638
2017-01-09T03:28:39.992Z,1028.486
2017-01-09T03:31:43.761Z,1028.471
2017-01-09T03:34:47.791Z,1028.428
2017-01-09T03:37:51.350Z,1028.373
2017-01-09T03:40:54.889Z,1028.267
2017-01-09T03:43:58.252Z,1028.190
2017-01-09T03:50:06.461Z,1028.205
2017-01-09T03:53:10.292Z,1028.295
2017-01-09T03:59:19.218Z,1028.232
2017-01-09T04:05:26.637Z,1028.210
2017-01-09T04:08:30.069Z,1028.155
2017-01-09T04:11:27.779Z,1028.140
2017-01-09T04:14:37.956Z,1028.132
2017-01-09T04:20:46.617Z,1028.138
2017-01-09T04:23:50.592Z,1028.110
2017-01-09T04:26:54.498Z,1028.085
2017-01-09T04:29:58.086Z,1028.065
2017-01-09T04:33:02.047Z,1028.028
2017-01-09T04:36:05.872Z,1027.945
2017-01-09T04:39:10.726Z,1027.912
2017-01-09T04:42:14.286Z,1027.952
2017-01-09T04:45:17.900Z,1027.950
2017-01-09T04:51:24.917Z,1027.927
2017-01-09T04:54:27.944Z,1027.892
2017-01-09T04:57:31.927Z,1027.811
2017-01-09T05:00:35.894Z,1027.738
2017-01-09T05:03:39.816Z,1027.739
2017-01-09T05:09:47.609Z,1027.711
2017-01-09T05:12:51.446Z,1027.637
2017-01-09T05:15:55.192Z,1027.594
2017-01-09T05:18:58.614Z,1027.560
2017-01-09T05:22:02.519Z,1027.550
2017-01-09T05:25:07.573Z,1027.524
2017-01-09T05:28:10.951Z,1027.467
2017-01-09T05:31:13.988Z,1027.471
2017-01-09T05:34:17.915Z,1027.433
2017-01-09T05:37:21.722Z,1027.378
2017-01-09T05:40:25.439Z,1027.256
2017-01-09T05:43:28.988Z,1027.254
2017-01-09T05:46:32.825Z,1027.243
2017-01-09T05:49:36.344Z,1027.210
2017-01-09T05:52:40.236Z,1027.214
2017-01-09T05:58:49.021Z,1027.107
2017-01-09T06:01:53.112Z,1027.093
2017-01-09T06:04:56.564Z,1027.082
2017-01-09T06:08:00.431Z,1027.116
2017-01-09T06:11:04.266Z,1027.145
2017-01-09T06:14:08.651Z,1027.135
2017-01-09T06:17:13.519Z,1027.172
2017-01-09T06:23:22.316Z,1027.127
2017-01-09T06:26:26.135Z,1027.043
2017-01-09T06:35:38.709Z,1026.953
2017-01-09T06:38:42.332Z,1026.979
2017-01-09T06:41:45.888Z,1027.083
2017-01-09T06:44:50.813Z,1027.099
2017-01-09T06:47:54.582Z,1027.175
2017-01-09T06:50:57.854Z,1027.150
2017-01-09T06:54:01.673Z,1027.142
2017-01-09T06:57:05.169Z,1027.179
2017-01-09T07:00:08.933Z,1027.122
2017-01-09T07:03:12.759Z,1027.111
2017-01-09T07:06:17.497Z,1027.086
2017-01-09T07:09:21.440Z,1027.064
2017-01-09T07:12:25.228Z,1027.078
2017-01-09T07:15:29.185Z,1027.105
2017-01-09T07:18:32.904Z,1027.090
2017-01-09T07:21:36.407Z,1027.085
2017-01-09T07:24:34.445Z,1027.073
2017-01-09T07:27:39.401Z,1027.004
2017-01-09T07:30:44.171Z,1026.990
2017-01-09T07:33:49.099Z,1026.962
2017-01-09T07:36:53.358Z,1026.936
2017-01-09T07:40:03.957Z,1026.845
2017-01-09T07:43:08.857Z,1026.800
2017-01-09T07:49:17.798Z,1026.717
2017-01-09T07:52:21.417Z,1026.673
2017-01-09T07:55:26.529Z,1026.644
2017-01-09T07:58:30.345Z,1026.613
2017-01-09T08:01:34.298Z,1026.578
2017-01-09T08:07:42.897Z,1026.487
2017-01-09T08:19:57.410Z,1026.426
2017-01-09T08:26:03.977Z,1026.425
2017-01-09T08:29:07.805Z,1026.459
2017-01-09T08:32:12.336Z,1026.459
2017-01-09T08:35:16.658Z,1026.417
2017-01-09T08:38:20.354Z,1026.385
2017-01-09T08:41:24.294Z,1026.347
2017-01-09T08:47:30.866Z,1026.392
2017-01-09T08:50:34.883Z,1026.352
2017-01-09T08:53:38.577Z,1026.318
2017-01-09T08:59:47.284Z,1026.355
2017-01-09T09:09:00.490Z,1026.242
2017-01-09T09:15:09.123Z,1026.265
2017-01-09T09:18:13.260Z,1026.250
2017-01-09T09:27:24.946Z,1026.128
2017-01-09T09:30:27.933Z,1026.097
2017-01-09T09:36:29.195Z,1026.041
2017-01-09T09:42:44.096Z,1026.071
2017-01-09T09:45:47.440Z,1026.026
2017-01-09T09:48:49.362Z,1025.977
2017-01-09T09:54:58.340Z,1025.842
2017-01-09T10:07:16.865Z,1025.801
2017-01-09T10:10:21.040Z,1025.778
2017-01-09T10:16:24.820Z,1025.716
2017-01-09T10:19:26.599Z,1025.659
2017-01-09T10:22:28.521Z,1025.614
2017-01-09T10:25:30.819Z,1025.617
2017-01-09T10:28:33.563Z,1025.598
2017-01-09T10:31:30.638Z,1025.541
2017-01-09T10:34:39.979Z,1025.479
2017-01-09T10:37:43.383Z,1025.403
2017-01-09T10:40:46.332Z,1025.377
2017-01-09T10:43:45.419Z,1025.292
2017-01-09T10:46:56.076Z,1025.166
2017-01-09T10:50:00.292Z,1025.107
2017-01-09T10:53:04.331Z,1025.038
2017-01-09T10:56:09.411Z,1025.038
2017-01-09T10:59:13.652Z,1024.965
2017-01-09T11:02:18.159Z,1024.901
2017-01-09T11:05:16.932Z,1024.839
2017-01-09T11:08:27.195Z,1024.735
2017-01-09T11:11:31.587Z,1024.674
2017-01-09T11:14:35.903Z,1024.538
2017-01-09T11:17:35.152Z,1024.508
2017-01-09T11:20:39.939Z,1024.447
2017-01-09T11:26:56.202Z,1024.334
2017-01-09T11:29:54.776Z,1024.232
2017-01-09T11:32:59.994Z,1024.175
2017-01-09T11:36:11.343Z,1024.132
2017-01-09T11:39:16.156Z,1024.076
2017-01-09T11:42:14.779Z,1024.060
2017-01-09T11:45:25.771Z,1024.042
2017-01-09T11:48:24.340Z,1023.921
2017-01-09T11:51:35.448Z,1023.916
2017-01-09T11:54:40.220Z,1023.875
2017-01-09T12:00:48.688Z,1023.797
2017-01-09T12:03:53.989Z,1023.774
2017-01-09T12:06:58.464Z,1023.784
2017-01-09T12:22:20.485Z,1023.652
2017-01-09T12:25:24.597Z,1023.579
2017-01-09T12:28:28.979Z,1023.491
2017-01-09T12:31:32.782Z,1023.461
2017-01-09T12:34:36.229Z,1023.473
2017-01-09T12:40:45.879Z,1023.506
2017-01-09T12:46:51.980Z,1023.525
2017-01-09T12:49:55.677Z,1023.520
2017-01-09T12:52:59.999Z,1023.473
2017-01-09T12:56:03.779Z,1023.424
2017-01-09T12:59:07.610Z,1023.362
2017-01-09T13:05:16.376Z,1023.293
2017-01-09T13:08:20.126Z,1023.256
2017-01-09T13:11:24.273Z,1023.163
2017-01-09T13:14:28.381Z,1023.101
2017-01-09T13:17:32.528Z,1023.074
2017-01-09T13:20:36.611Z,1023.018
2017-01-09T13:23:40.316Z,1023.014
2017-01-09T13:32:53.075Z,1022.993
2017-01-09T13:35:57.030Z,1022.873
2017-01-09T13:39:00.980Z,1022.809
2017-01-09T13:45:09.429Z,1022.802
2017-01-09T13:48:13.319Z,1022.787
2017-01-09T13:51:17.537Z,1022.759
2017-01-09T13:57:26.932Z,1022.674
2017-01-09T14:00:30.900Z,1022.650
2017-01-09T14:03:35.333Z,1022.602
2017-01-09T14:06:39.201Z,1022.588
2017-01-09T14:09:43.002Z,1022.598
2017-01-09T14:15:51.020Z,1022.596
2017-01-09T14:21:59.554Z,1022.534
2017-01-09T14:28:08.608Z,1022.517
2017-01-09T14:31:13.414Z,1022.506
2017-01-09T14:34:17.414Z,1022.508
2017-01-09T14:37:21.112Z,1022.409
2017-01-09T14:43:29.874Z,1022.311
2017-01-09T14:46:34.806Z,1022.304
2017-01-09T14:49:39.009Z,1022.326
2017-01-09T14:55:47.070Z,1022.305
2017-01-09T14:58:51.204Z,1022.348
2017-01-09T15:11:07.784Z,1022.223
2017-01-09T15:14:11.466Z,1022.245
2017-01-09T15:17:15.228Z,1022.201
2017-01-09T15:20:20.420Z,1022.225
2017-01-09T15:29:31.954Z,1022.145
2017-01-09T15:35:38.651Z,1022.046
2017-01-09T15:38:42.405Z,1021.986
2017-01-09T15:41:41.246Z,1021.965
2017-01-09T15:44:51.552Z,1021.898
2017-01-09T15:47:54.625Z,1021.884
2017-01-09T15:54:02.576Z,1021.886
2017-01-09T15:57:05.937Z,1021.875
2017-01-09T16:00:10.101Z,1021.855
2017-01-09T16:03:14.835Z,1021.838
2017-01-09T16:06:19.196Z,1021.871
2017-01-09T16:09:23.177Z,1021.905
2017-01-09T16:12:21.225Z,1021.848
2017-01-09T16:15:32.590Z,1021.782
2017-01-09T16:18:30.237Z,1021.769
2017-01-09T16:21:34.894Z,1021.719
2017-01-09T16:24:45.740Z,1021.699
2017-01-09T16:27:49.370Z,1021.681
2017-01-09T16:30:54.273Z,1021.670
2017-01-09T16:33:58.173Z,1021.614
2017-01-09T16:40:07.384Z,1021.538
2017-01-09T16:43:12.444Z,1021.475
2017-01-09T16:46:16.599Z,1021.468
2017-01-09T16:49:14.246Z,1021.473
2017-01-09T16:52:24.850Z,1021.435
2017-01-09T16:55:28.630Z,1021.353
2017-01-09T16:58:33.577Z,1021.289
2017-01-09T17:01:37.174Z,1021.298
2017-01-09T17:04:42.314Z,1021.301
2017-01-09T17:07:46.340Z,1021.211
2017-01-09T17:10:45.453Z,1021.156
2017-01-09T17:13:56.238Z,1021.134
2017-01-09T17:17:00.506Z,1021.114
2017-01-09T17:20:04.633Z,1021.082
2017-01-09T17:23:08.785Z,1021.016
2017-01-09T17:26:13.676Z,1020.950
2017-01-09T17:29:17.169Z,1020.871
2017-01-09T17:32:22.059Z,1020.805
2017-01-09T17:38:32.214Z,1020.750
2017-01-09T17:44:41.159Z,1020.571
2017-01-09T17:47:44.884Z,1020.534
2017-01-09T17:50:48.868Z,1020.525
2017-01-09T17:53:52.813Z,1020.461
2017-01-09T17:56:56.730Z,1020.402
2017-01-09T18:00:00.505Z,1020.372
2017-01-09T18:03:04.541Z,1020.331
2017-01-09T18:06:07.902Z,1020.276
2017-01-09T18:09:11.591Z,1020.237
2017-01-09T18:12:16.469Z,1020.168
2017-01-09T18:15:20.995Z,1020.055
2017-01-09T18:18:24.817Z,1019.979
2017-01-09T18:21:29.731Z,1019.967
2017-01-09T18:24:33.618Z,1019.884
2017-01-09T18:27:37.371Z,1019.950
2017-01-09T18:30:39.830Z,1019.936
2017-01-09T18:36:49.689Z,1019.743
2017-01-09T18:39:54.528Z,1019.659
2017-01-09T18:42:58.275Z,1019.669
2017-01-09T18:49:07.106Z,1019.666
2017-01-09T18:52:10.807Z,1019.677
2017-01-09T18:55:15.863Z,1019.646
2017-01-09T19:04:27.871Z,1019.650
2017-01-09T19:13:40.473Z,1019.503
2017-01-09T19:16:44.421Z,1019.444
2017-01-09T19:19:48.856Z,1019.387
2017-01-09T19:25:56.836Z,1019.253
2017-01-09T19:29:00.769Z,1019.237
2017-01-09T19:32:05.955Z,1019.213
2017-01-09T19:35:09.748Z,1019.168
2017-01-09T19:38:14.556Z,1019.032
2017-01-09T19:41:18.475Z,1018.977
2017-01-09T19:44:22.672Z,1018.939
2017-01-09T19:47:26.291Z,1018.907
2017-01-09T19:50:31.343Z,1018.810
2017-01-09T19:59:44.007Z,1018.604
2017-01-09T20:02:42.799Z,1018.596
2017-01-09T20:05:53.453Z,1018.579
2017-01-09T20:08:57.269Z,1018.538
2017-01-09T20:12:01.267Z,1018.470
2017-01-09T20:15:05.043Z,1018.422
2017-01-09T20:18:10.130Z,1018.436
2017-01-09T20:21:15.187Z,1018.422
2017-01-09T20:24:18.704Z,1018.374
2017-01-09T20:27:22.908Z,1018.352
2017-01-09T20:33:32.305Z,1018.253
2017-01-09T20:36:35.833Z,1018.181
2017-01-09T20:39:39.687Z,1018.174
2017-01-09T20:42:43.403Z,1018.141
2017-01-09T20:45:46.876Z,1018.118
2017-01-09T20:48:49.066Z,1018.110
2017-01-09T20:54:55.597Z,1018.046
2017-01-09T20:57:58.907Z,1018.025
2017-01-09T21:00:55.497Z,1017.968
2017-01-09T21:04:03.140Z,1017.897
2017-01-09T21:07:05.205Z,1017.819
2017-01-09T21:10:07.183Z,1017.824
2017-01-09T21:13:10.922Z,1017.770
2017-01-09T21:19:18.895Z,1017.804
2017-01-09T21:22:22.387Z,1017.712
2017-01-09T21:25:26.607Z,1017.639
2017-01-09T21:31:35.114Z,1017.569
2017-01-09T21:34:39.297Z,1017.565
2017-01-09T21:37:42.984Z,1017.513
2017-01-09T21:40:46.838Z,1017.492
2017-01-09T21:43:50.767Z,1017.436
2017-01-09T21:46:54.550Z,1017.381
2017-01-09T21:49:59.605Z,1017.340
2017-01-09T21:53:02.789Z,1017.346
2017-01-09T21:56:07.410Z,1017.311
2017-01-09T21:59:10.483Z,1017.268
2017-01-09T22:02:08.100Z,1017.200
2017-01-09T22:08:23.264Z,1017.054
2017-01-09T22:11:26.893Z,1017.027
2017-01-09T22:14:30.822Z,1016.963
2017-01-09T22:17:34.871Z,1016.883
2017-01-09T22:23:42.902Z,1016.801
2017-01-09T22:32:54.026Z,1016.599
2017-01-09T22:35:57.649Z,1016.581
2017-01-09T22:39:01.347Z,1016.536
2017-01-09T22:42:04.978Z,1016.535
2017-01-09T22:45:01.812Z,1016.498
2017-01-09T22:48:11.052Z,1016.449
2017-01-09T22:51:14.725Z,1016.334
2017-01-09T22:54:18.474Z,1016.267
2017-01-09T23:00:27.220Z,1016.134
2017-01-09T23:03:30.882Z,1016.087
2017-01-09T23:06:34.576Z,1016.023
2017-01-09T23:09:39.093Z,1015.985
2017-01-09T23:18:52.197Z,1015.785
2017-01-09T23:21:55.497Z,1015.745
2017-01-09T23:24:59.628Z,1015.758
2017-01-09T23:28:03.243Z,1015.790
2017-01-09T23:31:06.795Z,1015.733
2017-01-09T23:34:09.941Z,1015.621
2017-01-09T23:37:15.050Z,1015.572
2017-01-09T23:40:17.768Z,1015.585
2017-01-09T23:43:21.316Z,1015.604
2017-01-09T23:46:25.762Z,1015.550
2017-01-09T23:49:28.963Z,1015.504
2017-01-09T23:52:33.792Z,1015.434
2017-01-09T23:55:37.523Z,1015.346
2017-01-09T23:58:41.305Z,1015.349
